sensor_id;sensor_type;location;lat;lon;timestamp;pressure;altitude;pressure_sealevel;temperature
71428;BMP280;59246;59.102;37.928;2022-10-17T00:01:22;100245.13;;;10.49
71428;BMP280;59246;59.102;37.928;2022-10-17T00:03:50;100250.41;;;10.49
71428;BMP280;59246;59.102;37.928;2022-10-17T00:06:15;100240.09;;;10.47
71428;BMP280;59246;59.102;37.928;2022-10-17T00:08:41;100236.94;;;10.45
71428;BMP280;59246;59.102;37.928;2022-10-17T00:11:08;100235.31;;;10.44
71428;BMP280;59246;59.102;37.928;2022-10-17T00:13:34;100234.28;;;10.45
71428;BMP280;59246;59.102;37.928;2022-10-17T00:15:59;100230.81;;;10.45
71428;BMP280;59246;59.102;37.928;2022-10-17T00:18:25;100227.09;;;10.46
71428;BMP280;59246;59.102;37.928;2022-10-17T00:20:50;100221.53;;;10.47
71428;BMP280;59246;59.102;37.928;2022-10-17T00:23:16;100212.78;;;10.47
71428;BMP280;59246;59.102;37.928;2022-10-17T00:25:41;100217.81;;;10.48
71428;BMP280;59246;59.102;37.928;2022-10-17T00:28:10;100210.63;;;10.49
71428;BMP280;59246;59.102;37.928;2022-10-17T00:30:35;100201.63;;;10.45
71428;BMP280;59246;59.102;37.928;2022-10-17T00:33:01;100205.88;;;10.36
71428;BMP280;59246;59.102;37.928;2022-10-17T00:35:26;100196.09;;;10.26
71428;BMP280;59246;59.102;37.928;2022-10-17T00:37:52;100188.94;;;10.21
71428;BMP280;59246;59.102;37.928;2022-10-17T00:40:17;100188.94;;;10.21
71428;BMP280;59246;59.102;37.928;2022-10-17T00:42:43;100184.44;;;10.22
71428;BMP280;59246;59.102;37.928;2022-10-17T00:45:12;100177.81;;;10.24
71428;BMP280;59246;59.102;37.928;2022-10-17T00:47:39;100174.09;;;10.30
71428;BMP280;59246;59.102;37.928;2022-10-17T00:50:04;100167.16;;;10.35
71428;BMP280;59246;59.102;37.928;2022-10-17T00:52:30;100158.44;;;10.39
71428;BMP280;59246;59.102;37.928;2022-10-17T00:54:57;100143.81;;;10.42
71428;BMP280;59246;59.102;37.928;2022-10-17T00:57:25;100136.91;;;10.46
71428;BMP280;59246;59.102;37.928;2022-10-17T00:59:52;100146.19;;;10.48
71428;BMP280;59246;59.102;37.928;2022-10-17T01:02:19;100135.31;;;10.50
71428;BMP280;59246;59.102;37.928;2022-10-17T01:04:45;100133.72;;;10.54
71428;BMP280;59246;59.102;37.928;2022-10-17T01:07:11;100126.56;;;10.55
71428;BMP280;59246;59.102;37.928;2022-10-17T01:09:37;100137.69;;;10.57
71428;BMP280;59246;59.102;37.928;2022-10-17T01:14:38;100130.75;;;10.61
71428;BMP280;59246;59.102;37.928;2022-10-17T01:22:17;100120.94;;;10.61
71428;BMP280;59246;59.102;37.928;2022-10-17T01:35:26;100093.63;;;10.61
71428;BMP280;59246;59.102;37.928;2022-10-17T01:40:48;100084.31;;;10.58
71428;BMP280;59246;59.102;37.928;2022-10-17T01:43:19;100081.66;;;10.58
71428;BMP280;59246;59.102;37.928;2022-10-17T01:45:54;100076.38;;;10.58
71428;BMP280;59246;59.102;37.928;2022-10-17T01:48:25;100072.66;;;10.59
71428;BMP280;59246;59.102;37.928;2022-10-17T01:50:56;100077.97;;;10.59
71428;BMP280;59246;59.102;37.928;2022-10-17T01:53:27;100076.66;;;10.57
71428;BMP280;59246;59.102;37.928;2022-10-17T01:55:54;100064.19;;;10.57
71428;BMP280;59246;59.102;37.928;2022-10-17T01:58:32;100058.88;;;10.57
71428;BMP280;59246;59.102;37.928;2022-10-17T02:00:59;100048.28;;;10.57
71428;BMP280;59246;59.102;37.928;2022-10-17T02:03:25;100049.84;;;10.58
71428;BMP280;59246;59.102;37.928;2022-10-17T02:05:52;100055.97;;;10.59
71428;BMP280;59246;59.102;37.928;2022-10-17T02:08:24;100060.75;;;10.57
71428;BMP280;59246;59.102;37.928;2022-10-17T02:15:56;100057.84;;;10.53
71428;BMP280;59246;59.102;37.928;2022-10-17T02:18:37;100054.66;;;10.51
71428;BMP280;59246;59.102;37.928;2022-10-17T02:21:06;100052.53;;;10.53
71428;BMP280;59246;59.102;37.928;2022-10-17T02:26:09;100040.88;;;10.49
71428;BMP280;59246;59.102;37.928;2022-10-17T02:31:24;100051.47;;;10.49
71428;BMP280;59246;59.102;37.928;2022-10-17T02:34:04;100036.66;;;10.48
71428;BMP280;59246;59.102;37.928;2022-10-17T02:36:32;100034.25;;;10.46
71428;BMP280;59246;59.102;37.928;2022-10-17T02:39:00;100024.16;;;10.48
71428;BMP280;59246;59.102;37.928;2022-10-17T02:41:27;100036.34;;;10.49
71428;BMP280;59246;59.102;37.928;2022-10-17T02:43:52;100026.31;;;10.46
71428;BMP280;59246;59.102;37.928;2022-10-17T02:46:19;100021.81;;;10.47
71428;BMP280;59246;59.102;37.928;2022-10-17T02:48:49;100012.53;;;10.44
71428;BMP280;59246;59.102;37.928;2022-10-17T02:54:04;100019.97;;;10.42
71428;BMP280;59246;59.102;37.928;2022-10-17T02:56:36;100013.84;;;10.42
71428;BMP280;59246;59.102;37.928;2022-10-17T02:59:04;100014.41;;;10.39
71428;BMP280;59246;59.102;37.928;2022-10-17T03:01:31;100005.09;;;10.41
71428;BMP280;59246;59.102;37.928;2022-10-17T03:04:10;100001.69;;;10.41
71428;BMP280;59246;59.102;37.928;2022-10-17T03:06:35;99995.06;;;10.38
71428;BMP280;59246;59.102;37.928;2022-10-17T03:09:01;100002.25;;;10.38
71428;BMP280;59246;59.102;37.928;2022-10-17T03:11:26;99992.41;;;10.38
71428;BMP280;59246;59.102;37.928;2022-10-17T03:13:52;99996.41;;;10.36
71428;BMP280;59246;59.102;37.928;2022-10-17T03:16:17;100013.13;;;10.31
71428;BMP280;59246;59.102;37.928;2022-10-17T03:18:43;99982.16;;;10.21
71428;BMP280;59246;59.102;37.928;2022-10-17T03:21:08;100005.53;;;10.14
71428;BMP280;59246;59.102;37.928;2022-10-17T03:23:34;100011.13;;;10.02
71428;BMP280;59246;59.102;37.928;2022-10-17T03:26:05;100001.09;;;9.89
71428;BMP280;59246;59.102;37.928;2022-10-17T03:28:31;99999.53;;;9.72
71428;BMP280;59246;59.102;37.928;2022-10-17T03:30:57;99992.16;;;9.59
71428;BMP280;59246;59.102;37.928;2022-10-17T03:33:22;99982.91;;;9.46
71428;BMP280;59246;59.102;37.928;2022-10-17T03:35:48;99972.31;;;9.36
71428;BMP280;59246;59.102;37.928;2022-10-17T03:38:14;99980.28;;;9.31
71428;BMP280;59246;59.102;37.928;2022-10-17T03:40:39;99964.09;;;9.27
71428;BMP280;59246;59.102;37.928;2022-10-17T03:43:05;99943.75;;;9.28
71428;BMP280;59246;59.102;37.928;2022-10-17T03:45:30;99956.97;;;9.28
71428;BMP280;59246;59.102;37.928;2022-10-17T03:47:57;99940.03;;;9.29
71428;BMP280;59246;59.102;37.928;2022-10-17T03:50:22;99935.75;;;9.33
71428;BMP280;59246;59.102;37.928;2022-10-17T03:52:48;99944.25;;;9.40
71428;BMP280;59246;59.102;37.928;2022-10-17T03:55:14;99938.13;;;9.45
71428;BMP280;59246;59.102;37.928;2022-10-17T03:57:40;99944.50;;;9.49
71428;BMP280;59246;59.102;37.928;2022-10-17T04:00:05;99932.88;;;9.50
71428;BMP280;59246;59.102;37.928;2022-10-17T04:02:31;99935.22;;;9.51
71428;BMP280;59246;59.102;37.928;2022-10-17T04:04:59;99932.59;;;9.46
71428;BMP280;59246;59.102;37.928;2022-10-17T04:07:24;99927.31;;;9.41
71428;BMP280;59246;59.102;37.928;2022-10-17T04:09:50;99937.38;;;9.34
71428;BMP280;59246;59.102;37.928;2022-10-17T04:12:15;99934.72;;;9.29
71428;BMP280;59246;59.102;37.928;2022-10-17T04:14:41;99911.16;;;9.27
71428;BMP280;59246;59.102;37.928;2022-10-17T04:17:06;99903.50;;;9.31
71428;BMP280;59246;59.102;37.928;2022-10-17T04:19:32;99907.19;;;9.35
71428;BMP280;59246;59.102;37.928;2022-10-17T04:21:57;99897.13;;;9.37
71428;BMP280;59246;59.102;37.928;2022-10-17T04:24:23;99909.31;;;9.38
71428;BMP280;59246;59.102;37.928;2022-10-17T04:26:50;99897.66;;;9.39
71428;BMP280;59246;59.102;37.928;2022-10-17T04:29:24;99886.50;;;9.42
71428;BMP280;59246;59.102;37.928;2022-10-17T04:31:51;99891.78;;;9.42
71428;BMP280;59246;59.102;37.928;2022-10-17T04:34:17;99893.41;;;9.43
71428;BMP280;59246;59.102;37.928;2022-10-17T04:36:42;99904.25;;;9.47
71428;BMP280;59246;59.102;37.928;2022-10-17T04:39:07;99891.00;;;9.47
71428;BMP280;59246;59.102;37.928;2022-10-17T04:41:33;99894.47;;;9.47
71428;BMP280;59246;59.102;37.928;2022-10-17T04:43:59;99903.19;;;9.48
71428;BMP280;59246;59.102;37.928;2022-10-17T04:46:24;99925.19;;;9.48
71428;BMP280;59246;59.102;37.928;2022-10-17T04:48:50;99915.66;;;9.47
71428;BMP280;59246;59.102;37.928;2022-10-17T04:51:17;99913.25;;;9.46
71428;BMP280;59246;59.102;37.928;2022-10-17T04:53:43;99939.75;;;9.46
71428;BMP280;59246;59.102;37.928;2022-10-17T04:56:09;99938.41;;;9.43
71428;BMP280;59246;59.102;37.928;2022-10-17T04:58:35;99934.97;;;9.43
71428;BMP280;59246;59.102;37.928;2022-10-17T05:01:09;99930.47;;;9.43
71428;BMP280;59246;59.102;37.928;2022-10-17T05:03:35;99919.88;;;9.43
71428;BMP280;59246;59.102;37.928;2022-10-17T05:06:07;99918.28;;;9.42
71428;BMP280;59246;59.102;37.928;2022-10-17T05:08:33;99930.19;;;9.45
71428;BMP280;59246;59.102;37.928;2022-10-17T05:10:59;99910.63;;;9.46
71428;BMP280;59246;59.102;37.928;2022-10-17T05:13:25;99908.22;;;9.44
71428;BMP280;59246;59.102;37.928;2022-10-17T05:15:50;99901.84;;;9.45
71428;BMP280;59246;59.102;37.928;2022-10-17T05:18:16;99892.06;;;9.46
71428;BMP280;59246;59.102;37.928;2022-10-17T05:20:41;99898.16;;;9.46
71428;BMP280;59246;59.102;37.928;2022-10-17T05:23:07;99905.31;;;9.46
71428;BMP280;59246;59.102;37.928;2022-10-17T05:25:33;99912.44;;;9.45
71428;BMP280;59246;59.102;37.928;2022-10-17T05:27:58;99910.09;;;9.49
71428;BMP280;59246;59.102;37.928;2022-10-17T05:30:23;99892.59;;;9.48
71428;BMP280;59246;59.102;37.928;2022-10-17T05:32:54;99889.94;;;9.48
71428;BMP280;59246;59.102;37.928;2022-10-17T05:35:20;99889.16;;;9.47
71428;BMP280;59246;59.102;37.928;2022-10-17T05:37:45;99884.66;;;9.48
71428;BMP280;59246;59.102;37.928;2022-10-17T05:40:11;99905.56;;;9.54
71428;BMP280;59246;59.102;37.928;2022-10-17T05:42:37;99865.81;;;9.60
71428;BMP280;59246;59.102;37.928;2022-10-17T05:45:02;99854.13;;;9.66
71428;BMP280;59246;59.102;37.928;2022-10-17T05:47:28;99857.00;;;9.75
71428;BMP280;59246;59.102;37.928;2022-10-17T05:49:54;99859.09;;;9.83
71428;BMP280;59246;59.102;37.928;2022-10-17T05:52:19;99878.94;;;9.85
71428;BMP280;59246;59.102;37.928;2022-10-17T05:54:45;99858.56;;;9.86
71428;BMP280;59246;59.102;37.928;2022-10-17T05:57:10;99850.84;;;9.89
71428;BMP280;59246;59.102;37.928;2022-10-17T05:59:36;99850.84;;;9.95
71428;BMP280;59246;59.102;37.928;2022-10-17T06:02:01;99850.47;;;10.06
71428;BMP280;59246;59.102;37.928;2022-10-17T06:04:27;99854.97;;;10.11
71428;BMP280;59246;59.102;37.928;2022-10-17T06:06:52;99855.75;;;10.11
71428;BMP280;59246;59.102;37.928;2022-10-17T06:09:20;99867.69;;;10.14
71428;BMP280;59246;59.102;37.928;2022-10-17T06:11:48;99846.47;;;10.09
71428;BMP280;59246;59.102;37.928;2022-10-17T06:14:16;99854.50;;;10.04
71428;BMP280;59246;59.102;37.928;2022-10-17T06:16:41;99836.75;;;9.99
71428;BMP280;59246;59.102;37.928;2022-10-17T06:19:07;99870.97;;;9.96
71428;BMP280;59246;59.102;37.928;2022-10-17T06:21:33;99848.47;;;9.93
71428;BMP280;59246;59.102;37.928;2022-10-17T06:24:00;99842.34;;;9.92
71428;BMP280;59246;59.102;37.928;2022-10-17T06:26:26;99814.25;;;9.91
71428;BMP280;59246;59.102;37.928;2022-10-17T06:28:52;99821.97;;;9.93
71428;BMP280;59246;59.102;37.928;2022-10-17T06:31:18;99827.19;;;10.03
71428;BMP280;59246;59.102;37.928;2022-10-17T06:33:43;99823.94;;;10.11
71428;BMP280;59246;59.102;37.928;2022-10-17T06:36:10;99831.06;;;10.16
71428;BMP280;59246;59.102;37.928;2022-10-17T06:38:36;99835.28;;;10.22
71428;BMP280;59246;59.102;37.928;2022-10-17T06:41:02;99839.50;;;10.23
71428;BMP280;59246;59.102;37.928;2022-10-17T06:43:29;99829.97;;;10.22
71428;BMP280;59246;59.102;37.928;2022-10-17T06:45:54;99845.38;;;10.20
71428;BMP280;59246;59.102;37.928;2022-10-17T06:48:20;99851.22;;;10.17
71428;BMP280;59246;59.102;37.928;2022-10-17T06:50:45;99850.19;;;10.13
71428;BMP280;59246;59.102;37.928;2022-10-17T06:53:11;99857.91;;;10.09
71428;BMP280;59246;59.102;37.928;2022-10-17T06:55:36;99849.19;;;10.04
71428;BMP280;59246;59.102;37.928;2022-10-17T06:58:04;99834.84;;;10.05
71428;BMP280;59246;59.102;37.928;2022-10-17T07:00:30;99827.66;;;10.10
71428;BMP280;59246;59.102;37.928;2022-10-17T07:02:58;99845.91;;;10.17
71428;BMP280;59246;59.102;37.928;2022-10-17T07:05:24;99836.94;;;10.13
71428;BMP280;59246;59.102;37.928;2022-10-17T07:07:49;99863.19;;;10.09
71428;BMP280;59246;59.102;37.928;2022-10-17T07:10:15;99849.13;;;10.09
71428;BMP280;59246;59.102;37.928;2022-10-17T07:12:41;99846.47;;;10.09
71428;BMP280;59246;59.102;37.928;2022-10-17T07:15:08;99850.75;;;10.05
71428;BMP280;59246;59.102;37.928;2022-10-17T07:17:34;99852.91;;;9.98
71428;BMP280;59246;59.102;37.928;2022-10-17T07:20:00;99853.22;;;9.96
71428;BMP280;59246;59.102;37.928;2022-10-17T07:22:25;99867.78;;;9.94
71428;BMP280;59246;59.102;37.928;2022-10-17T07:24:51;99859.84;;;9.94
71428;BMP280;59246;59.102;37.928;2022-10-17T07:27:16;99861.44;;;9.95
71428;BMP280;59246;59.102;37.928;2022-10-17T07:29:42;99841.28;;;9.94
71428;BMP280;59246;59.102;37.928;2022-10-17T07:32:07;99853.22;;;9.96
71428;BMP280;59246;59.102;37.928;2022-10-17T07:34:34;99836.50;;;9.96
71428;BMP280;59246;59.102;37.928;2022-10-17T07:37:00;99833.56;;;9.97
71428;BMP280;59246;59.102;37.928;2022-10-17T07:39:25;99827.72;;;10.00
71428;BMP280;59246;59.102;37.928;2022-10-17T07:41:54;99824.00;;;10.01
71428;BMP280;59246;59.102;37.928;2022-10-17T07:44:19;99841.50;;;10.02
71428;BMP280;59246;59.102;37.928;2022-10-17T07:46:45;99843.34;;;10.02
71428;BMP280;59246;59.102;37.928;2022-10-17T07:49:10;99859.53;;;10.00
71428;BMP280;59246;59.102;37.928;2022-10-17T07:51:36;99829.31;;;10.01
71428;BMP280;59246;59.102;37.928;2022-10-17T07:54:03;99838.28;;;10.05
71428;BMP280;59246;59.102;37.928;2022-10-17T07:56:29;99834.84;;;10.05
71428;BMP280;59246;59.102;37.928;2022-10-17T07:58:55;99825.06;;;10.00
71428;BMP280;59246;59.102;37.928;2022-10-17T08:01:21;99838.59;;;9.99
71428;BMP280;59246;59.102;37.928;2022-10-17T08:03:46;99852.66;;;9.99
71428;BMP280;59246;59.102;37.928;2022-10-17T08:06:14;99829.56;;;10.05
71428;BMP280;59246;59.102;37.928;2022-10-17T08:08:40;99830.59;;;10.09
71428;BMP280;59246;59.102;37.928;2022-10-17T08:11:07;99821.03;;;10.13
71428;BMP280;59246;59.102;37.928;2022-10-17T08:13:33;99827.38;;;10.12
71428;BMP280;59246;59.102;37.928;2022-10-17T08:16:03;99818.88;;;10.15
71428;BMP280;59246;59.102;37.928;2022-10-17T08:18:28;99808.25;;;10.20
71428;BMP280;59246;59.102;37.928;2022-10-17T08:20:54;99809.78;;;10.26
71428;BMP280;59246;59.102;37.928;2022-10-17T08:23:19;99806.09;;;10.27
71428;BMP280;59246;59.102;37.928;2022-10-17T08:25:45;99806.25;;;10.36
71428;BMP280;59246;59.102;37.928;2022-10-17T08:28:10;99796.94;;;10.44
71428;BMP280;59246;59.102;37.928;2022-10-17T08:30:36;99787.28;;;10.53
71428;BMP280;59246;59.102;37.928;2022-10-17T08:33:01;99787.53;;;10.57
71428;BMP280;59246;59.102;37.928;2022-10-17T08:35:27;99783.16;;;10.66
71428;BMP280;59246;59.102;37.928;2022-10-17T08:37:55;99783.88;;;10.77
71428;BMP280;59246;59.102;37.928;2022-10-17T08:40:23;99782.41;;;10.90
71428;BMP280;59246;59.102;37.928;2022-10-17T08:47:44;99758.94;;;11.02
71428;BMP280;59246;59.102;37.928;2022-10-17T08:50:53;99775.19;;;10.95
71428;BMP280;59246;59.102;37.928;2022-10-17T08:53:01;99765.75;;;10.84
71428;BMP280;59246;59.102;37.928;2022-10-17T08:57:56;99766.53;;;10.84
71428;BMP280;59246;59.102;37.928;2022-10-17T09:00:21;99760.09;;;10.91
71428;BMP280;59246;59.102;37.928;2022-10-17T09:02:49;99744.28;;;11.04
71428;BMP280;59246;59.102;37.928;2022-10-17T09:05:26;99760.84;;;11.20
71428;BMP280;59246;59.102;37.928;2022-10-17T09:08:04;99751.88;;;11.35
71428;BMP280;59246;59.102;37.928;2022-10-17T09:18:22;99741.47;;;11.20
71428;BMP280;59246;59.102;37.928;2022-10-17T09:23:25;99740.69;;;10.95
71428;BMP280;59246;59.102;37.928;2022-10-17T09:25:56;99732.22;;;10.93
71428;BMP280;59246;59.102;37.928;2022-10-17T09:28:24;99730.91;;;10.91
71428;BMP280;59246;59.102;37.928;2022-10-17T09:30:56;99736.22;;;10.91
71428;BMP280;59246;59.102;37.928;2022-10-17T09:33:25;99732.44;;;10.97
71428;BMP280;59246;59.102;37.928;2022-10-17T09:35:52;99718.59;;;11.00
71428;BMP280;59246;59.102;37.928;2022-10-17T09:38:20;99709.00;;;11.04
71428;BMP280;59246;59.102;37.928;2022-10-17T09:40:53;99707.63;;;11.06
71428;BMP280;59246;59.102;37.928;2022-10-17T09:43:20;99698.53;;;11.13
71428;BMP280;59246;59.102;37.928;2022-10-17T09:48:29;99669.78;;;11.20
71428;BMP280;59246;59.102;37.928;2022-10-17T09:50:56;99683.22;;;11.23
71428;BMP280;59246;59.102;37.928;2022-10-17T09:53:29;99684.88;;;11.38
71428;BMP280;59246;59.102;37.928;2022-10-17T09:55:58;99675.69;;;11.50
71428;BMP280;59246;59.102;37.928;2022-10-17T10:03:40;99671.88;;;11.75
71428;BMP280;59246;59.102;37.928;2022-10-17T10:08:35;99662.78;;;11.76
71428;BMP280;59246;59.102;37.928;2022-10-17T10:11:05;99668.41;;;11.74
71428;BMP280;59246;59.102;37.928;2022-10-17T10:13:32;99660.91;;;11.76
71428;BMP280;59246;59.102;37.928;2022-10-17T10:16:40;99656.59;;;11.80
71428;BMP280;59246;59.102;37.928;2022-10-17T10:18:47;99651.97;;;11.86
71428;BMP280;59246;59.102;37.928;2022-10-17T10:21:14;99642.53;;;11.94
71428;BMP280;59246;59.102;37.928;2022-10-17T10:23:41;99635.19;;;12.04
71428;BMP280;59246;59.102;37.928;2022-10-17T10:28:56;99625.31;;;12.33
71428;BMP280;59246;59.102;37.928;2022-10-17T10:31:29;99621.06;;;12.59
71428;BMP280;59246;59.102;37.928;2022-10-17T10:33:55;99608.03;;;12.58
71428;BMP280;59246;59.102;37.928;2022-10-17T10:36:21;99618.91;;;12.48
71428;BMP280;59246;59.102;37.928;2022-10-17T10:38:51;99610.25;;;12.42
71428;BMP280;59246;59.102;37.928;2022-10-17T10:41:17;99607.38;;;12.38
71428;BMP280;59246;59.102;37.928;2022-10-17T10:43:48;99600.72;;;12.41
71428;BMP280;59246;59.102;37.928;2022-10-17T10:46:19;99597.84;;;12.37
71428;BMP280;59246;59.102;37.928;2022-10-17T10:51:23;99588.25;;;12.64
71428;BMP280;59246;59.102;37.928;2022-10-17T11:06:47;99562.81;;;13.88
71428;BMP280;59246;59.102;37.928;2022-10-17T11:11:44;99566.34;;;13.35
71428;BMP280;59246;59.102;37.928;2022-10-17T11:14:13;99563.88;;;13.16
71428;BMP280;59246;59.102;37.928;2022-10-17T11:16:42;99559.34;;;12.94
71428;BMP280;59246;59.102;37.928;2022-10-17T11:19:17;99545.13;;;12.76
71428;BMP280;59246;59.102;37.928;2022-10-17T11:24:51;99564.16;;;12.33
71428;BMP280;59246;59.102;37.928;2022-10-17T11:27:21;99564.59;;;12.12
71428;BMP280;59246;59.102;37.928;2022-10-17T11:29:47;99556.41;;;11.81
71428;BMP280;59246;59.102;37.928;2022-10-17T11:32:20;99571.81;;;11.51
71428;BMP280;59246;59.102;37.928;2022-10-17T11:34:49;99565.13;;;11.21
71428;BMP280;59246;59.102;37.928;2022-10-17T11:37:23;99588.34;;;10.96
71428;BMP280;59246;59.102;37.928;2022-10-17T11:39:52;99578.00;;;10.76
71428;BMP280;59246;59.102;37.928;2022-10-17T11:42:26;99587.72;;;10.61
71428;BMP280;59246;59.102;37.928;2022-10-17T11:44:55;99598.81;;;10.44
71428;BMP280;59246;59.102;37.928;2022-10-17T11:50:18;99564.06;;;10.46
71428;BMP280;59246;59.102;37.928;2022-10-17T11:52:47;99564.56;;;10.67
71428;BMP280;59246;59.102;37.928;2022-10-17T12:05:27;99572.31;;;11.20
71428;BMP280;59246;59.102;37.928;2022-10-17T12:08:11;99577.34;;;11.22
71428;BMP280;59246;59.102;37.928;2022-10-17T12:10:58;99571.72;;;11.23
71428;BMP280;59246;59.102;37.928;2022-10-17T12:15:53;99569.00;;;11.89
71428;BMP280;59246;59.102;37.928;2022-10-17T12:18:18;99553.84;;;12.90
71428;BMP280;59246;59.102;37.928;2022-10-17T12:20:54;99542.31;;;15.40
71428;BMP280;59246;59.102;37.928;2022-10-17T12:23:21;99536.72;;;16.80
71428;BMP280;59246;59.102;37.928;2022-10-17T12:25:55;99533.53;;;17.12
71428;BMP280;59246;59.102;37.928;2022-10-17T12:31:20;99532.03;;;15.13
71428;BMP280;59246;59.102;37.928;2022-10-17T12:38:48;99527.41;;;13.16
71428;BMP280;59246;59.102;37.928;2022-10-17T12:41:14;99515.94;;;12.71
71428;BMP280;59246;59.102;37.928;2022-10-17T12:43:48;99508.81;;;12.35
71428;BMP280;59246;59.102;37.928;2022-10-17T12:48:58;99518.69;;;11.93
71428;BMP280;59246;59.102;37.928;2022-10-17T12:51:24;99515.25;;;11.78
71428;BMP280;59246;59.102;37.928;2022-10-17T12:53:56;99522.41;;;11.64
71428;BMP280;59246;59.102;37.928;2022-10-17T12:56:30;99524.78;;;11.52
71428;BMP280;59246;59.102;37.928;2022-10-17T12:58:55;99542.06;;;11.35
71428;BMP280;59246;59.102;37.928;2022-10-17T13:03:51;99540.31;;;11.12
71428;BMP280;59246;59.102;37.928;2022-10-17T13:06:21;99525.06;;;11.03
71428;BMP280;59246;59.102;37.928;2022-10-17T13:08:49;99536.03;;;10.97
71428;BMP280;59246;59.102;37.928;2022-10-17T13:11:21;99525.22;;;10.93
71428;BMP280;59246;59.102;37.928;2022-10-17T13:13:48;99527.16;;;10.87
71428;BMP280;59246;59.102;37.928;2022-10-17T13:16:30;99524.84;;;10.81
71428;BMP280;59246;59.102;37.928;2022-10-17T13:18:57;99517.75;;;10.76
71428;BMP280;59246;59.102;37.928;2022-10-17T13:21:24;99547.31;;;10.69
71428;BMP280;59246;59.102;37.928;2022-10-17T13:23:49;99532.31;;;10.60
71428;BMP280;59246;59.102;37.928;2022-10-17T13:26:24;99528.00;;;10.45
71428;BMP280;59246;59.102;37.928;2022-10-17T13:31:50;99537.00;;;10.25
71428;BMP280;59246;59.102;37.928;2022-10-17T13:34:20;99519.59;;;10.19
71428;BMP280;59246;59.102;37.928;2022-10-17T13:36:53;99541.09;;;10.17
71428;BMP280;59246;59.102;37.928;2022-10-17T13:39:20;99543.00;;;10.11
71428;BMP280;59246;59.102;37.928;2022-10-17T13:41:47;99535.88;;;10.07
71428;BMP280;59246;59.102;37.928;2022-10-17T13:44:14;99524.56;;;10.01
71428;BMP280;59246;59.102;37.928;2022-10-17T13:46:40;99544.72;;;9.97
71428;BMP280;59246;59.102;37.928;2022-10-17T13:49:08;99535.78;;;9.93
71428;BMP280;59246;59.102;37.928;2022-10-17T13:51:34;99538.97;;;9.90
71428;BMP280;59246;59.102;37.928;2022-10-17T13:54:00;99545.13;;;9.85
71428;BMP280;59246;59.102;37.928;2022-10-17T13:56:26;99526.88;;;9.84
71428;BMP280;59246;59.102;37.928;2022-10-17T13:58:55;99545.47;;;9.79
71428;BMP280;59246;59.102;37.928;2022-10-17T14:01:22;99530.91;;;9.76
71428;BMP280;59246;59.102;37.928;2022-10-17T14:03:51;99542.63;;;9.70
71428;BMP280;59246;59.102;37.928;2022-10-17T14:08:48;99528.41;;;9.61
71428;BMP280;59246;59.102;37.928;2022-10-17T14:13:55;99515.22;;;9.56
71428;BMP280;59246;59.102;37.928;2022-10-17T14:16:21;99542.78;;;9.54
71428;BMP280;59246;59.102;37.928;2022-10-17T14:18:48;99534.03;;;9.54
71428;BMP280;59246;59.102;37.928;2022-10-17T14:21:21;99547.53;;;9.58
71428;BMP280;59246;59.102;37.928;2022-10-17T14:23:47;99526.84;;;9.60
71428;BMP280;59246;59.102;37.928;2022-10-17T14:26:22;99536.34;;;9.61
71428;BMP280;59246;59.102;37.928;2022-10-17T14:29:04;99533.44;;;9.62
71428;BMP280;59246;59.102;37.928;2022-10-17T14:31:31;99550.63;;;9.65
71428;BMP280;59246;59.102;37.928;2022-10-17T14:33:57;99544.78;;;9.68
71428;BMP280;59246;59.102;37.928;2022-10-17T14:36:38;99540.75;;;9.70
71428;BMP280;59246;59.102;37.928;2022-10-17T14:39:05;99537.56;;;9.73
71428;BMP280;59246;59.102;37.928;2022-10-17T14:41:31;99541.50;;;9.76
71428;BMP280;59246;59.102;37.928;2022-10-17T14:44:03;99550.00;;;9.78
71428;BMP280;59246;59.102;37.928;2022-10-17T14:46:30;99554.19;;;9.79
71428;BMP280;59246;59.102;37.928;2022-10-17T14:49:04;99559.47;;;9.79
71428;BMP280;59246;59.102;37.928;2022-10-17T14:51:30;99555.78;;;9.80
71428;BMP280;59246;59.102;37.928;2022-10-17T14:53:58;99550.19;;;9.82
71428;BMP280;59246;59.102;37.928;2022-10-17T14:56:25;99553.91;;;9.81
71428;BMP280;59246;59.102;37.928;2022-10-17T14:58:51;99574.09;;;9.77
71428;BMP280;59246;59.102;37.928;2022-10-17T15:01:17;99570.66;;;9.76
71428;BMP280;59246;59.102;37.928;2022-10-17T15:03:42;99567.78;;;9.72
71428;BMP280;59246;59.102;37.928;2022-10-17T15:06:16;99585.22;;;9.73
71428;BMP280;59246;59.102;37.928;2022-10-17T15:08:42;99588.41;;;9.76
71428;BMP280;59246;59.102;37.928;2022-10-17T15:11:08;99582.53;;;9.79
71428;BMP280;59246;59.102;37.928;2022-10-17T15:13:35;99586.50;;;9.81
71428;BMP280;59246;59.102;37.928;2022-10-17T15:16:00;99585.16;;;9.84
71428;BMP280;59246;59.102;37.928;2022-10-17T15:18:26;99603.69;;;9.84
71428;BMP280;59246;59.102;37.928;2022-10-17T15:20:51;99606.59;;;9.87
71428;BMP280;59246;59.102;37.928;2022-10-17T15:23:16;99597.34;;;9.85
71428;BMP280;59246;59.102;37.928;2022-10-17T15:25:42;99603.97;;;9.82
71428;BMP280;59246;59.102;37.928;2022-10-17T15:28:08;99608.28;;;9.78
71428;BMP280;59246;59.102;37.928;2022-10-17T15:30:35;99602.44;;;9.76
71428;BMP280;59246;59.102;37.928;2022-10-17T15:33:01;99620.50;;;9.69
71428;BMP280;59246;59.102;37.928;2022-10-17T15:35:26;99617.91;;;9.64
71428;BMP280;59246;59.102;37.928;2022-10-17T15:37:52;99626.97;;;9.58
71428;BMP280;59246;59.102;37.928;2022-10-17T15:40:20;99617.19;;;9.53
71428;BMP280;59246;59.102;37.928;2022-10-17T15:42:46;99618.81;;;9.49
71428;BMP280;59246;59.102;37.928;2022-10-17T15:45:12;99630.22;;;9.44
71428;BMP280;59246;59.102;37.928;2022-10-17T15:47:42;99622.03;;;9.41
71428;BMP280;59246;59.102;37.928;2022-10-17T15:50:12;99625.25;;;9.38
71428;BMP280;59246;59.102;37.928;2022-10-17T15:52:38;99612.28;;;9.36
71428;BMP280;59246;59.102;37.928;2022-10-17T15:55:03;99639.56;;;9.37
71428;BMP280;59246;59.102;37.928;2022-10-17T15:57:30;99633.44;;;9.36
71428;BMP280;59246;59.102;37.928;2022-10-17T15:59:58;99639.81;;;9.35
71428;BMP280;59246;59.102;37.928;2022-10-17T16:02:24;99637.19;;;9.35
71428;BMP280;59246;59.102;37.928;2022-10-17T16:04:50;99656.75;;;9.34